sensor_id;sensor_type;location;lat;lon;timestamp;pressure;altitude;pressure_sealevel;temperature;humidity
44839;BME280;30576;42.098;24.876;2023-05-29T00:00:47;99383.72;;;18.45;98.21
44839;BME280;30576;42.098;24.876;2023-05-29T00:03:12;99343.22;;;18.19;97.68
44839;BME280;30576;42.098;24.876;2023-05-29T00:05:38;99349.81;;;17.94;98.99
44839;BME280;30576;42.098;24.876;2023-05-29T00:08:03;99360.78;;;18.05;100.00
44839;BME280;30576;42.098;24.876;2023-05-29T00:10:29;99333.25;;;18.05;99.25
44839;BME280;30576;42.098;24.876;2023-05-29T00:12:56;99388.59;;;18.01;100.00
44839;BME280;30576;42.098;24.876;2023-05-29T00:15:22;99348.81;;;17.78;100.00
44839;BME280;30576;42.098;24.876;2023-05-29T00:17:48;99354.66;;;17.86;100.00
44839;BME280;30576;42.098;24.876;2023-05-29T00:20:14;99360.91;;;17.85;100.00
44839;BME280;30576;42.098;24.876;2023-05-29T00:22:40;99349.31;;;17.86;100.00
44839;BME280;30576;42.098;24.876;2023-05-29T00:25:06;99381.38;;;18.03;100.00
44839;BME280;30576;42.098;24.876;2023-05-29T00:27:33;99348.34;;;17.69;100.00
44839;BME280;30576;42.098;24.876;2023-05-29T00:30:02;99356.25;;;17.90;100.00
44839;BME280;30576;42.098;24.876;2023-05-29T00:32:28;99364.34;;;18.06;99.72
44839;BME280;30576;42.098;24.876;2023-05-29T00:34:54;99368.25;;;17.99;99.42
44839;BME280;30576;42.098;24.876;2023-05-29T00:37:21;99391.59;;;17.95;100.00
44839;BME280;30576;42.098;24.876;2023-05-29T00:39:47;99383.94;;;17.87;100.00
44839;BME280;30576;42.098;24.876;2023-05-29T00:42:13;99385.50;;;17.92;100.00
44839;BME280;30576;42.098;24.876;2023-05-29T00:44:38;99343.34;;;17.81;99.46
44839;BME280;30576;42.098;24.876;2023-05-29T00:47:04;99370.31;;;17.94;99.48
44839;BME280;30576;42.098;24.876;2023-05-29T00:49:29;99351.63;;;17.94;99.97
44839;BME280;30576;42.098;24.876;2023-05-29T00:51:55;99371.78;;;18.34;98.84
44839;BME280;30576;42.098;24.876;2023-05-29T00:54:25;99356.78;;;18.32;98.06
44839;BME280;30576;42.098;24.876;2023-05-29T00:56:52;99341.41;;;18.37;96.72
44839;BME280;30576;42.098;24.876;2023-05-29T00:59:17;99364.94;;;18.29;97.96
44839;BME280;30576;42.098;24.876;2023-05-29T01:01:47;99345.72;;;18.22;97.64
44839;BME280;30576;42.098;24.876;2023-05-29T01:04:15;99365.63;;;18.50;97.15
44839;BME280;30576;42.098;24.876;2023-05-29T01:06:40;99358.72;;;18.46;96.66
44839;BME280;30576;42.098;24.876;2023-05-29T01:09:06;99362.88;;;18.51;96.18
44839;BME280;30576;42.098;24.876;2023-05-29T01:11:52;99380.69;;;18.68;96.17
44839;BME280;30576;42.098;24.876;2023-05-29T01:17:24;99383.63;;;18.79;95.54
44839;BME280;30576;42.098;24.876;2023-05-29T01:20:11;99320.56;;;18.43;95.21
44839;BME280;30576;42.098;24.876;2023-05-29T01:26:17;99318.66;;;18.46;95.42
44839;BME280;30576;42.098;24.876;2023-05-29T01:28:49;99314.25;;;18.62;94.88
44839;BME280;30576;42.098;24.876;2023-05-29T01:31:19;99309.81;;;18.61;94.14
44839;BME280;30576;42.098;24.876;2023-05-29T01:33:58;99368.09;;;18.88;94.63
44839;BME280;30576;42.098;24.876;2023-05-29T01:36:25;99359.59;;;18.79;94.10
44839;BME280;30576;42.098;24.876;2023-05-29T01:38:53;99367.53;;;18.81;94.64
44839;BME280;30576;42.098;24.876;2023-05-29T01:41:21;99362.50;;;18.92;94.64
44839;BME280;30576;42.098;24.876;2023-05-29T01:43:47;99340.69;;;18.67;94.43
44839;BME280;30576;42.098;24.876;2023-05-29T01:46:15;99360.84;;;18.90;94.15
44839;BME280;30576;42.098;24.876;2023-05-29T01:48:41;99316.13;;;18.60;94.98
44839;BME280;30576;42.098;24.876;2023-05-29T01:51:08;99290.25;;;18.45;94.31
44839;BME280;30576;42.098;24.876;2023-05-29T01:53:34;99347.44;;;18.74;94.45
44839;BME280;30576;42.098;24.876;2023-05-29T01:55:59;99364.00;;;18.81;94.73
44839;BME280;30576;42.098;24.876;2023-05-29T01:58:27;99347.88;;;18.66;94.85
44839;BME280;30576;42.098;24.876;2023-05-29T02:00:53;99334.00;;;18.75;94.01
44839;BME280;30576;42.098;24.876;2023-05-29T02:03:20;99339.34;;;18.75;94.05
44839;BME280;30576;42.098;24.876;2023-05-29T02:05:46;99346.72;;;18.70;93.66
44839;BME280;30576;42.098;24.876;2023-05-29T02:08:12;99343.56;;;18.79;93.48
44839;BME280;30576;42.098;24.876;2023-05-29T02:10:37;99361.16;;;18.84;93.37
44839;BME280;30576;42.098;24.876;2023-05-29T02:13:02;99342.78;;;18.77;93.38
44839;BME280;30576;42.098;24.876;2023-05-29T02:15:28;99356.63;;;18.86;94.19
44839;BME280;30576;42.098;24.876;2023-05-29T02:17:53;99358.44;;;18.85;94.42
44839;BME280;30576;42.098;24.876;2023-05-29T02:20:19;99361.25;;;18.82;94.10
44839;BME280;30576;42.098;24.876;2023-05-29T02:22:45;99347.88;;;18.82;93.82
44839;BME280;30576;42.098;24.876;2023-05-29T02:25:11;99386.97;;;18.85;94.54
44839;BME280;30576;42.098;24.876;2023-05-29T02:27:36;99386.66;;;18.91;94.50
44839;BME280;30576;42.098;24.876;2023-05-29T02:30:02;99340.00;;;18.63;95.16
44839;BME280;30576;42.098;24.876;2023-05-29T02:32:27;99355.53;;;18.72;95.15
44839;BME280;30576;42.098;24.876;2023-05-29T02:34:54;99344.22;;;18.67;94.30
44839;BME280;30576;42.098;24.876;2023-05-29T02:37:20;99370.03;;;18.84;94.35
44839;BME280;30576;42.098;24.876;2023-05-29T02:39:45;99335.25;;;18.52;94.81
44839;BME280;30576;42.098;24.876;2023-05-29T02:42:11;99383.63;;;18.79;95.05
44839;BME280;30576;42.098;24.876;2023-05-29T02:44:36;99388.44;;;18.90;94.56
44839;BME280;30576;42.098;24.876;2023-05-29T02:47:02;99373.44;;;18.70;94.77
44839;BME280;30576;42.098;24.876;2023-05-29T02:49:27;99375.88;;;18.75;94.70
44839;BME280;30576;42.098;24.876;2023-05-29T02:51:53;99382.44;;;18.69;94.91
44839;BME280;30576;42.098;24.876;2023-05-29T02:54:25;99369.56;;;18.60;95.64
44839;BME280;30576;42.098;24.876;2023-05-29T02:56:51;99377.50;;;18.61;95.55
44839;BME280;30576;42.098;24.876;2023-05-29T02:59:17;99370.81;;;18.53;95.54
44839;BME280;30576;42.098;24.876;2023-05-29T03:01:42;99371.81;;;18.68;94.69
44839;BME280;30576;42.098;24.876;2023-05-29T03:04:09;99379.03;;;18.66;95.06
44839;BME280;30576;42.098;24.876;2023-05-29T03:06:35;99400.72;;;18.59;96.10
44839;BME280;30576;42.098;24.876;2023-05-29T03:09:02;99362.53;;;18.41;96.01
44839;BME280;30576;42.098;24.876;2023-05-29T03:11:28;99396.59;;;18.54;96.26
44839;BME280;30576;42.098;24.876;2023-05-29T03:13:54;99362.69;;;18.38;96.13
44839;BME280;30576;42.098;24.876;2023-05-29T03:16:20;99375.56;;;18.48;95.95
44839;BME280;30576;42.098;24.876;2023-05-29T03:18:46;99383.97;;;18.40;96.86
44839;BME280;30576;42.098;24.876;2023-05-29T03:21:12;99402.41;;;18.45;97.07
44839;BME280;30576;42.098;24.876;2023-05-29T03:23:37;99396.28;;;18.42;96.75
44839;BME280;30576;42.098;24.876;2023-05-29T03:26:03;99398.41;;;18.36;96.77
44839;BME280;30576;42.098;24.876;2023-05-29T03:28:30;99381.84;;;18.29;97.16
44839;BME280;30576;42.098;24.876;2023-05-29T03:30:56;99378.53;;;18.24;97.80
44839;BME280;30576;42.098;24.876;2023-05-29T03:33:22;99389.22;;;18.24;97.63
44839;BME280;30576;42.098;24.876;2023-05-29T03:35:47;99400.22;;;18.35;96.02
44839;BME280;30576;42.098;24.876;2023-05-29T03:38:13;99402.09;;;18.33;96.25
44839;BME280;30576;42.098;24.876;2023-05-29T03:40:38;99373.28;;;18.22;96.26
44839;BME280;30576;42.098;24.876;2023-05-29T03:43:04;99370.44;;;18.25;96.20
44839;BME280;30576;42.098;24.876;2023-05-29T03:45:29;99406.25;;;18.39;96.41
44839;BME280;30576;42.098;24.876;2023-05-29T03:47:55;99418.81;;;18.54;96.07
44839;BME280;30576;42.098;24.876;2023-05-29T03:50:20;99387.53;;;18.56;94.63
44839;BME280;30576;42.098;24.876;2023-05-29T03:52:46;99379.75;;;18.52;95.18
44839;BME280;30576;42.098;24.876;2023-05-29T03:55:12;99395.69;;;18.71;94.68
44839;BME280;30576;42.098;24.876;2023-05-29T03:57:41;99400.63;;;18.78;93.45
44839;BME280;30576;42.098;24.876;2023-05-29T04:00:11;99414.22;;;18.91;93.37
44839;BME280;30576;42.098;24.876;2023-05-29T04:02:40;99395.75;;;18.87;92.71
44839;BME280;30576;42.098;24.876;2023-05-29T04:05:06;99427.16;;;18.99;93.04
44839;BME280;30576;42.098;24.876;2023-05-29T04:07:36;99432.50;;;18.99;92.91
44839;BME280;30576;42.098;24.876;2023-05-29T04:10:02;99387.44;;;18.75;92.87
44839;BME280;30576;42.098;24.876;2023-05-29T04:12:28;99428.81;;;19.02;92.98
44839;BME280;30576;42.098;24.876;2023-05-29T04:14:54;99395.13;;;18.82;92.82
44839;BME280;30576;42.098;24.876;2023-05-29T04:17:19;99404.84;;;18.83;92.50
44839;BME280;30576;42.098;24.876;2023-05-29T04:19:45;99411.47;;;18.75;92.32
44839;BME280;30576;42.098;24.876;2023-05-29T04:22:10;99444.06;;;18.82;93.91
44839;BME280;30576;42.098;24.876;2023-05-29T04:24:36;99414.88;;;18.61;93.94
44839;BME280;30576;42.098;24.876;2023-05-29T04:27:01;99382.91;;;18.42;94.77
44839;BME280;30576;42.098;24.876;2023-05-29T04:29:28;99437.25;;;18.76;94.26
44839;BME280;30576;42.098;24.876;2023-05-29T04:31:54;99440.25;;;18.88;93.66
44839;BME280;30576;42.098;24.876;2023-05-29T04:34:20;99411.41;;;18.77;93.43
44839;BME280;30576;42.098;24.876;2023-05-29T04:36:47;99420.75;;;18.68;95.11
44839;BME280;30576;42.098;24.876;2023-05-29T04:39:13;99417.63;;;18.60;95.36
44839;BME280;30576;42.098;24.876;2023-05-29T04:41:39;99425.94;;;18.71;95.10
44839;BME280;30576;42.098;24.876;2023-05-29T04:44:06;99432.25;;;18.88;94.75
44839;BME280;30576;42.098;24.876;2023-05-29T04:46:31;99434.59;;;18.94;93.92
44839;BME280;30576;42.098;24.876;2023-05-29T04:48:57;99458.31;;;19.00;94.05
44839;BME280;30576;42.098;24.876;2023-05-29T04:51:22;99442.78;;;19.07;92.50
44839;BME280;30576;42.098;24.876;2023-05-29T04:53:50;99435.03;;;19.02;92.61
44839;BME280;30576;42.098;24.876;2023-05-29T04:56:17;99478.47;;;19.23;91.98
44839;BME280;30576;42.098;24.876;2023-05-29T04:58:43;99439.19;;;19.08;91.04
44839;BME280;30576;42.098;24.876;2023-05-29T05:01:09;99461.53;;;19.23;91.07
44839;BME280;30576;42.098;24.876;2023-05-29T05:03:42;99465.00;;;19.25;90.82
44839;BME280;30576;42.098;24.876;2023-05-29T05:06:07;99443.66;;;19.07;91.79
44839;BME280;30576;42.098;24.876;2023-05-29T05:08:33;99473.78;;;19.27;91.94
44839;BME280;30576;42.098;24.876;2023-05-29T05:11:00;99440.28;;;19.04;91.88
44839;BME280;30576;42.098;24.876;2023-05-29T05:13:26;99458.09;;;19.21;91.26
44839;BME280;30576;42.098;24.876;2023-05-29T05:15:52;99478.13;;;19.45;89.82
44839;BME280;30576;42.098;24.876;2023-05-29T05:18:17;99459.91;;;19.20;90.80
44839;BME280;30576;42.098;24.876;2023-05-29T05:20:43;99466.63;;;19.27;90.82
44839;BME280;30576;42.098;24.876;2023-05-29T05:23:09;99488.75;;;19.47;90.33
44839;BME280;30576;42.098;24.876;2023-05-29T05:25:34;99470.38;;;19.41;89.32
44839;BME280;30576;42.098;24.876;2023-05-29T05:28:01;99486.16;;;19.45;89.64
44839;BME280;30576;42.098;24.876;2023-05-29T05:30:28;99472.34;;;19.37;90.21
44839;BME280;30576;42.098;24.876;2023-05-29T05:32:53;99462.69;;;19.35;90.47
44839;BME280;30576;42.098;24.876;2023-05-29T05:35:19;99480.22;;;19.40;91.45
44839;BME280;30576;42.098;24.876;2023-05-29T05:37:44;99432.88;;;19.09;90.43
44839;BME280;30576;42.098;24.876;2023-05-29T05:40:10;99500.31;;;19.47;89.78
44839;BME280;30576;42.098;24.876;2023-05-29T05:42:35;99488.16;;;19.42;89.17
44839;BME280;30576;42.098;24.876;2023-05-29T05:45:01;99459.19;;;19.17;90.71
44839;BME280;30576;42.098;24.876;2023-05-29T05:47:28;99440.44;;;19.34;89.50
44839;BME280;30576;42.098;24.876;2023-05-29T05:49:53;99453.03;;;19.48;89.70
44839;BME280;30576;42.098;24.876;2023-05-29T05:52:19;99463.78;;;19.30;91.15
44839;BME280;30576;42.098;24.876;2023-05-29T05:54:45;99474.72;;;19.10;92.40
44839;BME280;30576;42.098;24.876;2023-05-29T05:57:11;99436.94;;;19.16;89.41
44839;BME280;30576;42.098;24.876;2023-05-29T05:59:36;99491.09;;;19.20;89.76
44839;BME280;30576;42.098;24.876;2023-05-29T06:02:02;99456.91;;;19.26;88.70
44839;BME280;30576;42.098;24.876;2023-05-29T06:04:29;99455.44;;;19.37;88.86
44839;BME280;30576;42.098;24.876;2023-05-29T06:06:55;99481.94;;;19.73;87.45
44839;BME280;30576;42.098;24.876;2023-05-29T06:09:21;99464.75;;;19.61;87.12
44839;BME280;30576;42.098;24.876;2023-05-29T06:11:46;99488.81;;;19.79;87.74
44839;BME280;30576;42.098;24.876;2023-05-29T06:14:13;99469.41;;;19.74;87.56
44839;BME280;30576;42.098;24.876;2023-05-29T06:16:38;99469.66;;;19.87;87.20
44839;BME280;30576;42.098;24.876;2023-05-29T06:19:04;99478.41;;;20.04;86.30
44839;BME280;30576;42.098;24.876;2023-05-29T06:21:30;99485.59;;;20.04;86.19
44839;BME280;30576;42.098;24.876;2023-05-29T06:23:55;99466.19;;;20.00;85.31
44839;BME280;30576;42.098;24.876;2023-05-29T06:26:21;99466.88;;;19.88;87.88
44839;BME280;30576;42.098;24.876;2023-05-29T06:28:46;99476.88;;;19.84;88.62
44839;BME280;30576;42.098;24.876;2023-05-29T06:31:12;99484.44;;;19.76;88.21
44839;BME280;30576;42.098;24.876;2023-05-29T06:33:37;99496.66;;;19.82;87.06
44839;BME280;30576;42.098;24.876;2023-05-29T06:36:03;99516.94;;;20.02;86.89
44839;BME280;30576;42.098;24.876;2023-05-29T06:38:29;99471.16;;;19.75;86.83
44839;BME280;30576;42.098;24.876;2023-05-29T06:40:54;99509.44;;;19.93;87.42
44839;BME280;30576;42.098;24.876;2023-05-29T06:43:20;99490.91;;;19.72;87.66
44839;BME280;30576;42.098;24.876;2023-05-29T06:45:45;99513.09;;;19.58;88.42
44839;BME280;30576;42.098;24.876;2023-05-29T06:48:11;99506.66;;;19.78;88.22
44839;BME280;30576;42.098;24.876;2023-05-29T06:50:36;99495.84;;;19.64;87.84
44839;BME280;30576;42.098;24.876;2023-05-29T06:53:02;99458.88;;;19.71;88.23
44839;BME280;30576;42.098;24.876;2023-05-29T06:55:27;99476.69;;;19.88;88.17
44839;BME280;30576;42.098;24.876;2023-05-29T06:57:52;99471.34;;;19.88;88.20
44839;BME280;30576;42.098;24.876;2023-05-29T07:00:18;99463.31;;;20.03;87.27
44839;BME280;30576;42.098;24.876;2023-05-29T07:02:44;99510.19;;;20.11;85.61
44839;BME280;30576;42.098;24.876;2023-05-29T07:05:09;99484.22;;;20.13;85.12
44839;BME280;30576;42.098;24.876;2023-05-29T07:07:34;99446.53;;;20.16;84.98
44839;BME280;30576;42.098;24.876;2023-05-29T07:10:00;99496.16;;;20.37;85.26
44839;BME280;30576;42.098;24.876;2023-05-29T07:12:26;99510.38;;;20.84;84.21
44839;BME280;30576;42.098;24.876;2023-05-29T07:14:52;99511.88;;;20.74;83.45
44839;BME280;30576;42.098;24.876;2023-05-29T07:17:17;99486.97;;;20.42;84.28
44839;BME280;30576;42.098;24.876;2023-05-29T07:19:42;99515.53;;;20.73;83.59
44839;BME280;30576;42.098;24.876;2023-05-29T07:22:08;99469.19;;;20.41;82.78
44839;BME280;30576;42.098;24.876;2023-05-29T07:24:34;99494.63;;;20.64;84.60
44839;BME280;30576;42.098;24.876;2023-05-29T07:26:59;99493.03;;;20.75;84.42
44839;BME280;30576;42.098;24.876;2023-05-29T07:29:25;99475.34;;;20.57;83.71
44839;BME280;30576;42.098;24.876;2023-05-29T07:31:51;99468.06;;;20.89;83.96
44839;BME280;30576;42.098;24.876;2023-05-29T07:34:16;99478.78;;;20.89;83.05
44839;BME280;30576;42.098;24.876;2023-05-29T07:37:03;99484.94;;;20.91;83.52
44839;BME280;30576;42.098;24.876;2023-05-29T07:39:30;99477.38;;;21.27;83.38
44839;BME280;30576;42.098;24.876;2023-05-29T07:41:55;99466.84;;;21.38;81.99
44839;BME280;30576;42.098;24.876;2023-05-29T07:44:21;99515.59;;;21.59;78.28
44839;BME280;30576;42.098;24.876;2023-05-29T07:46:47;99517.97;;;21.06;75.75
44839;BME280;30576;42.098;24.876;2023-05-29T07:49:13;99498.72;;;21.14;77.68
44839;BME280;30576;42.098;24.876;2023-05-29T07:51:38;99522.91;;;21.57;75.14
44839;BME280;30576;42.098;24.876;2023-05-29T07:54:05;99495.50;;;21.52;76.94
44839;BME280;30576;42.098;24.876;2023-05-29T07:56:30;99498.38;;;21.49;75.69
44839;BME280;30576;42.098;24.876;2023-05-29T07:58:56;99508.31;;;21.76;77.13
44839;BME280;30576;42.098;24.876;2023-05-29T08:01:22;99516.00;;;22.09;75.93
44839;BME280;30576;42.098;24.876;2023-05-29T08:03:48;99493.47;;;22.39;74.06
44839;BME280;30576;42.098;24.876;2023-05-29T08:06:13;99509.06;;;22.47;75.25
44839;BME280;30576;42.098;24.876;2023-05-29T08:08:47;99478.72;;;22.32;73.18
44839;BME280;30576;42.098;24.876;2023-05-29T08:11:13;99523.75;;;22.81;72.20
44839;BME280;30576;42.098;24.876;2023-05-29T08:13:38;99493.13;;;22.84;69.19
44839;BME280;30576;42.098;24.876;2023-05-29T08:16:04;99483.78;;;22.89;70.06
44839;BME280;30576;42.098;24.876;2023-05-29T08:18:31;99507.91;;;23.30;69.30
44839;BME280;30576;42.098;24.876;2023-05-29T08:20:57;99501.84;;;23.52;65.20
44839;BME280;30576;42.098;24.876;2023-05-29T08:23:23;99487.75;;;22.97;69.86
44839;BME280;30576;42.098;24.876;2023-05-29T08:25:48;99484.72;;;23.40;68.55
44839;BME280;30576;42.098;24.876;2023-05-29T08:28:15;99506.16;;;24.04;65.82
44839;BME280;30576;42.098;24.876;2023-05-29T08:30:40;99456.44;;;22.96;66.26
44839;BME280;30576;42.098;24.876;2023-05-29T08:33:06;99467.69;;;23.52;65.47
44839;BME280;30576;42.098;24.876;2023-05-29T08:35:32;99505.66;;;23.73;65.31
44839;BME280;30576;42.098;24.876;2023-05-29T08:37:58;99483.41;;;23.58;63.00
44839;BME280;30576;42.098;24.876;2023-05-29T08:40:24;99479.56;;;23.37;64.10
44839;BME280;30576;42.098;24.876;2023-05-29T08:45:33;99474.88;;;24.15;63.15
44839;BME280;30576;42.098;24.876;2023-05-29T08:48:00;99499.44;;;24.34;60.37
44839;BME280;30576;42.098;24.876;2023-05-29T08:50:25;99464.56;;;24.44;61.89
44839;BME280;30576;42.098;24.876;2023-05-29T08:52:51;99461.06;;;23.82;60.50
44839;BME280;30576;42.098;24.876;2023-05-29T08:55:17;99493.41;;;24.30;59.18
44839;BME280;30576;42.098;24.876;2023-05-29T08:57:43;99503.19;;;24.56;59.02
44839;BME280;30576;42.098;24.876;2023-05-29T09:00:11;99484.94;;;24.24;58.08
44839;BME280;30576;42.098;24.876;2023-05-29T09:02:41;99466.13;;;24.59;58.35
44839;BME280;30576;42.098;24.876;2023-05-29T09:05:07;99489.34;;;24.96;59.72
44839;BME280;30576;42.098;24.876;2023-05-29T09:07:36;99480.09;;;25.23;58.75
44839;BME280;30576;42.098;24.876;2023-05-29T09:10:05;99471.97;;;24.53;58.79
44839;BME280;30576;42.098;24.876;2023-05-29T09:12:32;99466.78;;;24.15;57.74
44839;BME280;30576;42.098;24.876;2023-05-29T09:14:58;99447.84;;;24.03;59.43
44839;BME280;30576;42.098;24.876;2023-05-29T09:17:23;99458.25;;;23.84;58.06
44839;BME280;30576;42.098;24.876;2023-05-29T09:19:49;99475.13;;;24.82;56.87
44839;BME280;30576;42.098;24.876;2023-05-29T09:22:15;99454.88;;;24.77;58.68
44839;BME280;30576;42.098;24.876;2023-05-29T09:24:43;99451.09;;;24.44;56.48
44839;BME280;30576;42.098;24.876;2023-05-29T09:27:11;99457.38;;;25.02;52.90
44839;BME280;30576;42.098;24.876;2023-05-29T09:29:41;99445.84;;;25.23;54.13
44839;BME280;30576;42.098;24.876;2023-05-29T09:32:11;99480.47;;;25.52;56.00
44839;BME280;30576;42.098;24.876;2023-05-29T09:34:37;99465.88;;;24.62;52.36
44839;BME280;30576;42.098;24.876;2023-05-29T09:37:07;99465.31;;;24.93;57.10
44839;BME280;30576;42.098;24.876;2023-05-29T09:39:49;99442.16;;;25.01;57.10
44839;BME280;30576;42.098;24.876;2023-05-29T09:42:15;99436.38;;;25.17;57.50
44839;BME280;30576;42.098;24.876;2023-05-29T09:44:50;99461.91;;;25.25;50.62
44839;BME280;30576;42.098;24.876;2023-05-29T09:47:19;99470.00;;;25.70;54.47
44839;BME280;30576;42.098;24.876;2023-05-29T09:49:45;99425.00;;;25.48;54.20
44839;BME280;30576;42.098;24.876;2023-05-29T09:52:12;99431.16;;;25.94;54.29
44839;BME280;30576;42.098;24.876;2023-05-29T09:54:44;99448.28;;;25.83;53.04
44839;BME280;30576;42.098;24.876;2023-05-29T09:57:13;99457.25;;;25.72;50.38
44839;BME280;30576;42.098;24.876;2023-05-29T09:59:45;99429.03;;;24.86;52.62
44839;BME280;30576;42.098;24.876;2023-05-29T10:02:16;99450.69;;;24.37;53.66
44839;BME280;30576;42.098;24.876;2023-05-29T10:04:42;99382.78;;;23.72;54.75
44839;BME280;30576;42.098;24.876;2023-05-29T10:07:28;99433.53;;;24.03;53.00
44839;BME280;30576;42.098;24.876;2023-05-29T10:10:02;99421.03;;;24.02;56.93
44839;BME280;30576;42.098;24.876;2023-05-29T10:12:29;99417.50;;;24.37;54.64
44839;BME280;30576;42.098;24.876;2023-05-29T10:14:56;99421.16;;;24.71;52.08
44839;BME280;30576;42.098;24.876;2023-05-29T10:17:32;99409.19;;;24.98;53.73
44839;BME280;30576;42.098;24.876;2023-05-29T10:20:01;99410.16;;;25.08;54.22
44839;BME280;30576;42.098;24.876;2023-05-29T10:22:27;99392.00;;;24.99;52.93
44839;BME280;30576;42.098;24.876;2023-05-29T10:24:56;99421.44;;;25.02;53.13
44839;BME280;30576;42.098;24.876;2023-05-29T10:27:21;99427.69;;;25.02;52.65
44839;BME280;30576;42.098;24.876;2023-05-29T10:36:11;99435.91;;;25.24;50.06
44839;BME280;30576;42.098;24.876;2023-05-29T10:38:40;99426.06;;;24.66;50.06
44839;BME280;30576;42.098;24.876;2023-05-29T10:49:23;99419.13;;;25.98;47.92
44839;BME280;30576;42.098;24.876;2023-05-29T10:51:49;99411.56;;;26.45;50.85
44839;BME280;30576;42.098;24.876;2023-05-29T10:54:15;99404.22;;;26.57;44.56
44839;BME280;30576;42.098;24.876;2023-05-29T10:56:44;99422.25;;;26.68;45.65
44839;BME280;30576;42.098;24.876;2023-05-29T10:59:10;99389.91;;;26.66;54.31
44839;BME280;30576;42.098;24.876;2023-05-29T11:01:38;99401.38;;;27.01;46.28
44839;BME280;30576;42.098;24.876;2023-05-29T11:06:41;99395.25;;;26.14;45.16
44839;BME280;30576;42.098;24.876;2023-05-29T11:12:16;99408.41;;;26.82;42.85
44839;BME280;30576;42.098;24.876;2023-05-29T11:15:09;99378.63;;;26.40;46.11
44839;BME280;30576;42.098;24.876;2023-05-29T11:20:06;99398.56;;;26.81;48.29
44839;BME280;30576;42.098;24.876;2023-05-29T11:25:22;99394.53;;;27.06;44.20
44839;BME280;30576;42.098;24.876;2023-05-29T11:27:47;99390.44;;;27.12;45.25
44839;BME280;30576;42.098;24.876;2023-05-29T11:30:13;99362.34;;;27.44;44.11
44839;BME280;30576;42.098;24.876;2023-05-29T11:32:39;99359.25;;;27.68;42.90
44839;BME280;30576;42.098;24.876;2023-05-29T11:35:09;99381.06;;;27.16;43.94
44839;BME280;30576;42.098;24.876;2023-05-29T12:12:16;99348.50;;;27.37;45.05
44839;BME280;30576;42.098;24.876;2023-05-29T12:14:42;99352.19;;;26.95;45.49
44839;BME280;30576;42.098;24.876;2023-05-29T12:17:08;99326.44;;;27.01;42.86
44839;BME280;30576;42.098;24.876;2023-05-29T12:19:34;99333.66;;;26.91;43.31
44839;BME280;30576;42.098;24.876;2023-05-29T12:21:59;99318.72;;;26.96;42.11
44839;BME280;30576;42.098;24.876;2023-05-29T12:24:25;99359.84;;;27.21;43.23
44839;BME280;30576;42.098;24.876;2023-05-29T12:26:50;99330.88;;;27.72;42.07
44839;BME280;30576;42.098;24.876;2023-05-29T12:29:16;99352.72;;;28.19;42.71
44839;BME280;30576;42.098;24.876;2023-05-29T12:31:41;99319.91;;;27.93;43.64
44839;BME280;30576;42.098;24.876;2023-05-29T12:34:08;99317.03;;;27.75;42.64
44839;BME280;30576;42.098;24.876;2023-05-29T12:36:35;99343.72;;;28.29;42.38
44839;BME280;30576;42.098;24.876;2023-05-29T12:39:06;99346.59;;;28.27;43.10
44839;BME280;30576;42.098;24.876;2023-05-29T12:41:34;99338.72;;;27.95;44.59
44839;BME280;30576;42.098;24.876;2023-05-29T12:44:03;99311.31;;;28.17;42.59
44839;BME280;30576;42.098;24.876;2023-05-29T12:46:38;99323.13;;;28.36;41.49
44839;BME280;30576;42.098;24.876;2023-05-29T12:49:14;99325.75;;;27.09;44.24
44839;BME280;30576;42.098;24.876;2023-05-29T12:51:41;99315.88;;;26.88;44.64
44839;BME280;30576;42.098;24.876;2023-05-29T12:54:13;99310.44;;;26.57;44.71
44839;BME280;30576;42.098;24.876;2023-05-29T12:56:40;99298.47;;;26.60;44.82
44839;BME280;30576;42.098;24.876;2023-05-29T12:59:09;99323.75;;;27.11;43.29
44839;BME280;30576;42.098;24.876;2023-05-29T13:01:36;99332.38;;;27.36;42.94
44839;BME280;30576;42.098;24.876;2023-05-29T13:04:04;99333.88;;;27.79;41.04
44839;BME280;30576;42.098;24.876;2023-05-29T13:06:32;99295.34;;;27.46;40.91
44839;BME280;30576;42.098;24.876;2023-05-29T13:08:58;99297.09;;;27.57;42.78
44839;BME280;30576;42.098;24.876;2023-05-29T13:11:24;99299.66;;;27.48;41.87
44839;BME280;30576;42.098;24.876;2023-05-29T13:13:51;99301.63;;;27.46;40.47
44839;BME280;30576;42.098;24.876;2023-05-29T13:16:16;99294.00;;;27.21;40.75
44839;BME280;30576;42.098;24.876;2023-05-29T13:18:43;99305.34;;;27.45;39.95
44839;BME280;30576;42.098;24.876;2023-05-29T13:21:08;99309.03;;;27.35;39.53
44839;BME280;30576;42.098;24.876;2023-05-29T13:23:35;99282.69;;;26.96;40.45
44839;BME280;30576;42.098;24.876;2023-05-29T13:26:00;99295.34;;;26.65;41.36
44839;BME280;30576;42.098;24.876;2023-05-29T13:28:26;99319.28;;;27.00;40.32
44839;BME280;30576;42.098;24.876;2023-05-29T13:30:52;99305.22;;;26.66;42.06
44839;BME280;30576;42.098;24.876;2023-05-29T13:33:17;99306.00;;;25.93;50.83
44839;BME280;30576;42.098;24.876;2023-05-29T13:35:43;99273.56;;;25.51;52.89
44839;BME280;30576;42.098;24.876;2023-05-29T13:38:08;99315.75;;;24.86;56.55
44839;BME280;30576;42.098;24.876;2023-05-29T13:40:34;99325.31;;;24.20;59.31
44839;BME280;30576;42.098;24.876;2023-05-29T13:42:59;99281.19;;;23.39;62.01
44839;BME280;30576;42.098;24.876;2023-05-29T13:45:25;99332.09;;;23.90;63.19
44839;BME280;30576;42.098;24.876;2023-05-29T13:47:53;99330.66;;;23.49;61.40
44839;BME280;30576;42.098;24.876;2023-05-29T13:50:18;99295.72;;;23.36;63.51
44839;BME280;30576;42.098;24.876;2023-05-29T13:52:44;99320.53;;;23.53;63.61
44839;BME280;30576;42.098;24.876;2023-05-29T13:55:10;99320.38;;;23.91;63.92
44839;BME280;30576;42.098;24.876;2023-05-29T13:57:36;99336.63;;;23.90;63.98